Terminal Aerodrome Forecast
Issued by NWS

Home | Current Version | Previous Version | Text Only | Print | Product List | Glossary Off
Versions: 1 2 3 4 5 6 7 8 9 10 11 12 13 14 15 16 17 18 19

918
FTUS43 KICT 270214 AAA
TAFCNU
TAF AMD
KCNU 270214Z 2702/2724 17011KT P6SM SCT030 BKN150
     FM270600 15010KT P6SM VCTS BKN035CB OVC080
     FM271000 15009KT 6SM BR OVC015
     FM271900 17013G21KT P6SM VCTS BKN030CB=

USA.gov is the U.S. government's official web portal to all federal, state and local government web resources and services.